CheckWX is a tool to help pilots better visualize weather data.  It is not intended as a substitute for an official pre-flight weather briefing.

08:51:52 UTC

EGNJ METAR
Humberside Airport
Grimsby, United Kingdom
Current

32 mins ago

EGNJ 220820Z 21010KT 9999 -RA FEW020 11/08 Q1019
Observed
May-22 @ 08:20 UTC
Wind
  • 210° at 10 KTS
Visibility
10,000+ meters
Flight Rules
VFR
Conditions
Light Rain
Cloud Levels
  • Few at 2,000' AGL
Temperature
11°C / 52°F
Dewpoint
C / 46°F
Humidity
82%
Altimeter
30.09" Hg
Pressure
1018.92 hPa
Previous

1 hour ago

EGNJ 220750Z 21009KT 9999 FEW020 11/08 Q1019
Observed
May-22 @ 07:50 UTC
Wind
  • 210° at 9 KTS
Visibility
10,000+ meters
Flight Rules
VFR
Cloud Levels
  • Few at 2,000' AGL
Temperature
11°C / 52°F
Dewpoint
C / 46°F
Humidity
82%
Altimeter
30.09" Hg
Pressure
1018.92 hPa
Previous

2 hours ago

EGNJ 220720Z 23006KT 9999 FEW020 10/07 Q1019
Observed
May-22 @ 07:20 UTC
Wind
  • 230° at 6 KTS
Visibility
10,000+ meters
Flight Rules
VFR
Cloud Levels
  • Few at 2,000' AGL
Temperature
10°C / 50°F
Dewpoint
C / 45°F
Humidity
82%
Altimeter
30.09" Hg
Pressure
1018.92 hPa